sensor_id;sensor_type;location;lat;lon;timestamp;temperature;humidity
67194;DHT22;54121;53.508;49.422;2022-12-07T00:01:26;-8.60;70.60
67194;DHT22;54121;53.508;49.422;2022-12-07T00:03:55;-8.60;70.40
67194;DHT22;54121;53.508;49.422;2022-12-07T00:06:35;-8.60;70.40
67194;DHT22;54121;53.508;49.422;2022-12-07T00:09:02;-8.70;70.30
67194;DHT22;54121;53.508;49.422;2022-12-07T00:11:29;-8.60;70.50
67194;DHT22;54121;53.508;49.422;2022-12-07T00:13:58;-8.60;70.20
67194;DHT22;54121;53.508;49.422;2022-12-07T00:16:28;-8.60;70.00
67194;DHT22;54121;53.508;49.422;2022-12-07T00:18:55;-8.60;69.80
67194;DHT22;54121;53.508;49.422;2022-12-07T00:21:28;-8.70;69.90
67194;DHT22;54121;53.508;49.422;2022-12-07T00:23:57;-8.70;70.20
67194;DHT22;54121;53.508;49.422;2022-12-07T00:26:29;-8.80;70.20
67194;DHT22;54121;53.508;49.422;2022-12-07T00:29:03;-8.80;70.40
67194;DHT22;54121;53.508;49.422;2022-12-07T00:31:34;-8.70;70.30
67194;DHT22;54121;53.508;49.422;2022-12-07T00:34:02;-8.70;70.10
67194;DHT22;54121;53.508;49.422;2022-12-07T00:36:28;-8.70;70.10
67194;DHT22;54121;53.508;49.422;2022-12-07T00:38:57;-8.70;70.00
67194;DHT22;54121;53.508;49.422;2022-12-07T00:41:25;-8.70;70.10
67194;DHT22;54121;53.508;49.422;2022-12-07T00:43:52;-8.70;70.00
67194;DHT22;54121;53.508;49.422;2022-12-07T00:46:20;-8.70;71.10
67194;DHT22;54121;53.508;49.422;2022-12-07T00:48:48;-8.70;69.80
67194;DHT22;54121;53.508;49.422;2022-12-07T00:51:17;-8.80;69.60
67194;DHT22;54121;53.508;49.422;2022-12-07T00:53:44;-8.80;69.80
67194;DHT22;54121;53.508;49.422;2022-12-07T00:56:22;-8.90;70.20
67194;DHT22;54121;53.508;49.422;2022-12-07T00:59:10;-8.80;70.30
67194;DHT22;54121;53.508;49.422;2022-12-07T01:01:37;-8.90;71.50
67194;DHT22;54121;53.508;49.422;2022-12-07T01:04:04;-8.90;70.40
67194;DHT22;54121;53.508;49.422;2022-12-07T01:06:32;-8.90;70.30
67194;DHT22;54121;53.508;49.422;2022-12-07T01:08:59;-8.90;70.70
67194;DHT22;54121;53.508;49.422;2022-12-07T01:11:28;-9.00;70.70
67194;DHT22;54121;53.508;49.422;2022-12-07T01:13:57;-9.00;70.80
67194;DHT22;54121;53.508;49.422;2022-12-07T01:16:25;-9.20;71.10
67194;DHT22;54121;53.508;49.422;2022-12-07T01:18:54;-9.10;71.50
67194;DHT22;54121;53.508;49.422;2022-12-07T01:21:32;-9.10;71.30
67194;DHT22;54121;53.508;49.422;2022-12-07T01:24:06;-9.30;71.50
67194;DHT22;54121;53.508;49.422;2022-12-07T01:26:34;-9.30;71.80
67194;DHT22;54121;53.508;49.422;2022-12-07T01:29:00;-9.30;72.20
67194;DHT22;54121;53.508;49.422;2022-12-07T01:31:27;-9.30;72.10
67194;DHT22;54121;53.508;49.422;2022-12-07T01:33:56;-9.20;72.10
67194;DHT22;54121;53.508;49.422;2022-12-07T01:36:29;-9.00;71.60
67194;DHT22;54121;53.508;49.422;2022-12-07T01:38:59;-9.10;71.40
67194;DHT22;54121;53.508;49.422;2022-12-07T01:41:28;-9.00;71.40
67194;DHT22;54121;53.508;49.422;2022-12-07T01:46:42;-8.80;70.30
67194;DHT22;54121;53.508;49.422;2022-12-07T01:49:14;-8.90;70.20
67194;DHT22;54121;53.508;49.422;2022-12-07T01:51:43;-8.90;70.40
67194;DHT22;54121;53.508;49.422;2022-12-07T01:54:11;-8.90;70.40
67194;DHT22;54121;53.508;49.422;2022-12-07T01:56:40;-8.90;70.70
67194;DHT22;54121;53.508;49.422;2022-12-07T01:59:08;-8.90;70.50
67194;DHT22;54121;53.508;49.422;2022-12-07T02:01:34;-9.00;70.50
67194;DHT22;54121;53.508;49.422;2022-12-07T02:04:01;-9.00;70.40
67194;DHT22;54121;53.508;49.422;2022-12-07T02:06:28;-8.90;70.40
67194;DHT22;54121;53.508;49.422;2022-12-07T02:08:55;-8.90;70.20
67194;DHT22;54121;53.508;49.422;2022-12-07T02:11:22;-9.00;70.30
67194;DHT22;54121;53.508;49.422;2022-12-07T02:13:49;-8.90;70.00
67194;DHT22;54121;53.508;49.422;2022-12-07T02:17:18;-9.00;69.30
67194;DHT22;54121;53.508;49.422;2022-12-07T02:28:12;-8.90;69.20
67194;DHT22;54121;53.508;49.422;2022-12-07T02:30:47;-9.00;69.30
67194;DHT22;54121;53.508;49.422;2022-12-07T02:33:19;-9.00;69.20
67194;DHT22;54121;53.508;49.422;2022-12-07T02:36:12;-9.00;69.40
67194;DHT22;54121;53.508;49.422;2022-12-07T02:38:55;-9.00;69.30
67194;DHT22;54121;53.508;49.422;2022-12-07T02:41:33;-9.00;69.40
67194;DHT22;54121;53.508;49.422;2022-12-07T02:44:03;-8.90;69.30
67194;DHT22;54121;53.508;49.422;2022-12-07T02:46:36;-8.90;69.40
67194;DHT22;54121;53.508;49.422;2022-12-07T02:49:03;-8.70;69.50
67194;DHT22;54121;53.508;49.422;2022-12-07T02:51:31;-8.60;68.60
67194;DHT22;54121;53.508;49.422;2022-12-07T02:53:58;-8.60;68.10
67194;DHT22;54121;53.508;49.422;2022-12-07T02:57:21;-8.70;68.30
67194;DHT22;54121;53.508;49.422;2022-12-07T03:05:10;-8.70;67.90
67194;DHT22;54121;53.508;49.422;2022-12-07T03:08:11;-8.70;68.10
67194;DHT22;54121;53.508;49.422;2022-12-07T03:16:10;-8.90;69.40
67194;DHT22;54121;53.508;49.422;2022-12-07T03:18:48;-8.80;69.50
67194;DHT22;54121;53.508;49.422;2022-12-07T03:21:18;-8.80;69.20
67194;DHT22;54121;53.508;49.422;2022-12-07T03:23:50;-8.90;69.40
67194;DHT22;54121;53.508;49.422;2022-12-07T03:26:18;-8.80;69.50
67194;DHT22;54121;53.508;49.422;2022-12-07T03:28:50;-8.80;69.30
67194;DHT22;54121;53.508;49.422;2022-12-07T03:31:23;-8.90;69.30
67194;DHT22;54121;53.508;49.422;2022-12-07T03:36:47;-8.90;69.20
67194;DHT22;54121;53.508;49.422;2022-12-07T03:39:32;-8.90;69.20
67194;DHT22;54121;53.508;49.422;2022-12-07T03:42:00;-9.00;69.20
67194;DHT22;54121;53.508;49.422;2022-12-07T03:44:28;-9.00;69.30
67194;DHT22;54121;53.508;49.422;2022-12-07T03:47:05;-9.00;69.20
67194;DHT22;54121;53.508;49.422;2022-12-07T03:49:39;-9.00;69.10
67194;DHT22;54121;53.508;49.422;2022-12-07T03:55:15;-9.00;68.50
67194;DHT22;54121;53.508;49.422;2022-12-07T03:57:45;-9.00;68.20
67194;DHT22;54121;53.508;49.422;2022-12-07T04:00:14;-9.00;67.80
67194;DHT22;54121;53.508;49.422;2022-12-07T04:02:41;-9.10;67.90
67194;DHT22;54121;53.508;49.422;2022-12-07T04:05:08;-9.10;68.50
67194;DHT22;54121;53.508;49.422;2022-12-07T04:07:36;-8.90;68.60
67194;DHT22;54121;53.508;49.422;2022-12-07T04:10:03;-8.80;67.90
67194;DHT22;54121;53.508;49.422;2022-12-07T04:12:30;-8.60;67.40
67194;DHT22;54121;53.508;49.422;2022-12-07T04:14:57;-8.40;66.80
67194;DHT22;54121;53.508;49.422;2022-12-07T04:17:23;-8.20;65.80
67194;DHT22;54121;53.508;49.422;2022-12-07T04:19:50;-8.00;65.00
67194;DHT22;54121;53.508;49.422;2022-12-07T04:22:16;-7.80;64.20
67194;DHT22;54121;53.508;49.422;2022-12-07T04:24:43;-7.60;63.10
67194;DHT22;54121;53.508;49.422;2022-12-07T04:27:09;-7.60;62.40
67194;DHT22;54121;53.508;49.422;2022-12-07T04:29:36;-7.40;61.80
67194;DHT22;54121;53.508;49.422;2022-12-07T04:32:03;-7.30;61.40
67194;DHT22;54121;53.508;49.422;2022-12-07T04:34:29;-7.20;60.70
67194;DHT22;54121;53.508;49.422;2022-12-07T04:36:56;-7.00;59.90
67194;DHT22;54121;53.508;49.422;2022-12-07T04:39:28;-6.90;59.40
67194;DHT22;54121;53.508;49.422;2022-12-07T04:41:56;-6.70;59.00
67194;DHT22;54121;53.508;49.422;2022-12-07T04:44:23;-6.80;58.20
67194;DHT22;54121;53.508;49.422;2022-12-07T04:46:50;-6.50;58.30
67194;DHT22;54121;53.508;49.422;2022-12-07T04:49:18;-6.40;57.30
67194;DHT22;54121;53.508;49.422;2022-12-07T04:51:45;-6.50;57.10
67194;DHT22;54121;53.508;49.422;2022-12-07T04:54:13;-6.30;57.00
67194;DHT22;54121;53.508;49.422;2022-12-07T04:56:40;-6.20;56.10
67194;DHT22;54121;53.508;49.422;2022-12-07T04:59:07;-6.10;55.90
67194;DHT22;54121;53.508;49.422;2022-12-07T05:01:34;-6.10;55.70
67194;DHT22;54121;53.508;49.422;2022-12-07T05:04:00;-6.00;55.70
67194;DHT22;54121;53.508;49.422;2022-12-07T05:06:27;-6.20;55.20
67194;DHT22;54121;53.508;49.422;2022-12-07T05:08:54;-5.90;55.60
67194;DHT22;54121;53.508;49.422;2022-12-07T05:11:21;-5.70;54.70
67194;DHT22;54121;53.508;49.422;2022-12-07T05:14:16;-5.70;54.20
67194;DHT22;54121;53.508;49.422;2022-12-07T05:16:44;-5.70;53.90
67194;DHT22;54121;53.508;49.422;2022-12-07T05:19:11;-5.90;53.70
67194;DHT22;54121;53.508;49.422;2022-12-07T05:21:38;-5.90;53.90
67194;DHT22;54121;53.508;49.422;2022-12-07T05:24:06;-5.90;54.10
67194;DHT22;54121;53.508;49.422;2022-12-07T05:26:33;-6.00;54.00
67194;DHT22;54121;53.508;49.422;2022-12-07T05:29:00;-6.10;54.20
67194;DHT22;54121;53.508;49.422;2022-12-07T05:31:27;-6.00;54.70
67194;DHT22;54121;53.508;49.422;2022-12-07T05:33:54;-6.10;54.50
67194;DHT22;54121;53.508;49.422;2022-12-07T05:36:20;-5.90;54.30
67194;DHT22;54121;53.508;49.422;2022-12-07T05:38:47;-5.50;53.50
67194;DHT22;54121;53.508;49.422;2022-12-07T05:41:16;-5.60;53.10
67194;DHT22;54121;53.508;49.422;2022-12-07T05:44:02;-5.40;52.60
67194;DHT22;54121;53.508;49.422;2022-12-07T05:46:28;-5.10;51.90
67194;DHT22;54121;53.508;49.422;2022-12-07T05:48:55;-5.20;51.10
67194;DHT22;54121;53.508;49.422;2022-12-07T05:51:22;-5.30;51.20
67194;DHT22;54121;53.508;49.422;2022-12-07T05:53:48;-5.50;51.80
67194;DHT22;54121;53.508;49.422;2022-12-07T05:56:15;-5.20;52.10
67194;DHT22;54121;53.508;49.422;2022-12-07T05:58:42;-5.20;51.70
67194;DHT22;54121;53.508;49.422;2022-12-07T06:01:27;-5.10;51.90
67194;DHT22;54121;53.508;49.422;2022-12-07T06:03:54;-4.80;51.00
67194;DHT22;54121;53.508;49.422;2022-12-07T06:06:21;-4.60;50.80
67194;DHT22;54121;53.508;49.422;2022-12-07T06:08:48;-4.40;49.60
67194;DHT22;54121;53.508;49.422;2022-12-07T06:11:15;-4.00;48.60
67194;DHT22;54121;53.508;49.422;2022-12-07T06:13:59;-3.90;48.00
67194;DHT22;54121;53.508;49.422;2022-12-07T06:16:26;-3.90;47.90
67194;DHT22;54121;53.508;49.422;2022-12-07T06:18:52;-3.70;47.50
67194;DHT22;54121;53.508;49.422;2022-12-07T06:21:19;-3.30;46.40
67194;DHT22;54121;53.508;49.422;2022-12-07T06:23:45;-3.00;45.20
67194;DHT22;54121;53.508;49.422;2022-12-07T06:26:14;-3.00;44.70
67194;DHT22;54121;53.508;49.422;2022-12-07T06:28:41;-2.80;44.00
67194;DHT22;54121;53.508;49.422;2022-12-07T06:31:08;-2.90;44.00
67194;DHT22;54121;53.508;49.422;2022-12-07T06:33:34;-2.40;42.80
67194;DHT22;54121;53.508;49.422;2022-12-07T06:36:01;-2.10;41.80
67194;DHT22;54121;53.508;49.422;2022-12-07T06:38:28;-2.00;41.40
67194;DHT22;54121;53.508;49.422;2022-12-07T06:40:55;-2.10;41.20
67194;DHT22;54121;53.508;49.422;2022-12-07T06:43:21;-1.70;42.10
67194;DHT22;54121;53.508;49.422;2022-12-07T06:45:48;-1.60;40.30
67194;DHT22;54121;53.508;49.422;2022-12-07T06:48:14;-1.10;39.60
67194;DHT22;54121;53.508;49.422;2022-12-07T06:50:43;-0.80;38.60
67194;DHT22;54121;53.508;49.422;2022-12-07T06:53:10;-0.70;38.00
67194;DHT22;54121;53.508;49.422;2022-12-07T06:55:37;-0.30;37.20
67194;DHT22;54121;53.508;49.422;2022-12-07T06:58:04;0.00;36.30
67194;DHT22;54121;53.508;49.422;2022-12-07T07:00:30;0.20;35.40
67194;DHT22;54121;53.508;49.422;2022-12-07T07:02:57;0.30;35.20
67194;DHT22;54121;53.508;49.422;2022-12-07T07:05:24;0.50;34.70
67194;DHT22;54121;53.508;49.422;2022-12-07T07:07:50;0.50;34.70
67194;DHT22;54121;53.508;49.422;2022-12-07T07:10:17;0.70;34.00
67194;DHT22;54121;53.508;49.422;2022-12-07T07:12:44;0.70;34.00
67194;DHT22;54121;53.508;49.422;2022-12-07T07:15:10;0.60;34.40
67194;DHT22;54121;53.508;49.422;2022-12-07T07:17:38;0.70;34.10
67194;DHT22;54121;53.508;49.422;2022-12-07T07:20:07;1.00;33.50
67194;DHT22;54121;53.508;49.422;2022-12-07T07:22:34;1.00;32.80
67194;DHT22;54121;53.508;49.422;2022-12-07T07:25:00;1.20;32.60
67194;DHT22;54121;53.508;49.422;2022-12-07T07:27:27;1.20;33.60
67194;DHT22;54121;53.508;49.422;2022-12-07T07:29:54;1.50;32.00
67194;DHT22;54121;53.508;49.422;2022-12-07T07:32:20;1.70;31.60
67194;DHT22;54121;53.508;49.422;2022-12-07T07:34:48;1.70;31.00
67194;DHT22;54121;53.508;49.422;2022-12-07T07:37:15;1.90;32.20
67194;DHT22;54121;53.508;49.422;2022-12-07T07:39:41;1.60;30.70
67194;DHT22;54121;53.508;49.422;2022-12-07T07:42:08;1.70;31.00
67194;DHT22;54121;53.508;49.422;2022-12-07T07:44:35;1.90;31.00
67194;DHT22;54121;53.508;49.422;2022-12-07T07:47:02;2.10;30.90
67194;DHT22;54121;53.508;49.422;2022-12-07T07:49:29;1.90;30.50
67194;DHT22;54121;53.508;49.422;2022-12-07T07:51:56;1.70;30.90
67194;DHT22;54121;53.508;49.422;2022-12-07T07:54:23;2.00;30.20
67194;DHT22;54121;53.508;49.422;2022-12-07T07:56:49;2.20;29.80
67194;DHT22;54121;53.508;49.422;2022-12-07T07:59:16;2.40;29.30
67194;DHT22;54121;53.508;49.422;2022-12-07T08:01:43;2.50;29.10
67194;DHT22;54121;53.508;49.422;2022-12-07T08:04:09;2.60;28.60
67194;DHT22;54121;53.508;49.422;2022-12-07T08:06:36;2.80;28.40
67194;DHT22;54121;53.508;49.422;2022-12-07T08:09:03;2.40;29.00
67194;DHT22;54121;53.508;49.422;2022-12-07T08:11:31;2.40;29.00
67194;DHT22;54121;53.508;49.422;2022-12-07T08:13:58;2.70;28.90
67194;DHT22;54121;53.508;49.422;2022-12-07T08:16:25;2.90;28.40
67194;DHT22;54121;53.508;49.422;2022-12-07T08:18:51;3.10;28.40
67194;DHT22;54121;53.508;49.422;2022-12-07T08:21:18;3.20;28.20
67194;DHT22;54121;53.508;49.422;2022-12-07T08:23:44;2.90;28.70
67194;DHT22;54121;53.508;49.422;2022-12-07T08:26:13;2.20;29.40
67194;DHT22;54121;53.508;49.422;2022-12-07T08:28:41;2.30;29.20
67194;DHT22;54121;53.508;49.422;2022-12-07T08:31:17;2.70;28.80
67194;DHT22;54121;53.508;49.422;2022-12-07T08:33:46;3.10;28.20
67194;DHT22;54121;53.508;49.422;2022-12-07T08:36:13;3.30;28.10
67194;DHT22;54121;53.508;49.422;2022-12-07T08:38:41;3.50;27.50
67194;DHT22;54121;53.508;49.422;2022-12-07T08:41:08;3.30;27.60
67194;DHT22;54121;53.508;49.422;2022-12-07T08:43:35;3.40;27.60
67194;DHT22;54121;53.508;49.422;2022-12-07T08:46:08;3.40;27.50
67194;DHT22;54121;53.508;49.422;2022-12-07T08:48:40;2.40;28.50
67194;DHT22;54121;53.508;49.422;2022-12-07T08:51:09;2.70;28.80
67194;DHT22;54121;53.508;49.422;2022-12-07T08:53:38;2.60;28.40
67194;DHT22;54121;53.508;49.422;2022-12-07T08:56:06;2.50;28.50
67194;DHT22;54121;53.508;49.422;2022-12-07T08:58:34;3.20;27.90
67194;DHT22;54121;53.508;49.422;2022-12-07T09:01:01;3.60;27.40
67194;DHT22;54121;53.508;49.422;2022-12-07T09:03:28;3.80;26.90
67194;DHT22;54121;53.508;49.422;2022-12-07T09:05:55;3.90;27.00
67194;DHT22;54121;53.508;49.422;2022-12-07T09:08:22;3.90;26.90
67194;DHT22;54121;53.508;49.422;2022-12-07T09:10:50;3.70;26.80
67194;DHT22;54121;53.508;49.422;2022-12-07T09:13:17;4.10;26.20
67194;DHT22;54121;53.508;49.422;2022-12-07T09:15:43;4.00;26.70
67194;DHT22;54121;53.508;49.422;2022-12-07T09:18:10;3.60;26.40
67194;DHT22;54121;53.508;49.422;2022-12-07T09:20:36;3.80;26.30
67194;DHT22;54121;53.508;49.422;2022-12-07T09:23:05;4.30;25.30
67194;DHT22;54121;53.508;49.422;2022-12-07T09:25:33;4.60;24.60
67194;DHT22;54121;53.508;49.422;2022-12-07T09:28:00;4.40;24.60
67194;DHT22;54121;53.508;49.422;2022-12-07T09:30:27;4.30;24.50
67194;DHT22;54121;53.508;49.422;2022-12-07T09:32:57;4.50;25.40
67194;DHT22;54121;53.508;49.422;2022-12-07T09:35:24;4.50;24.60
67194;DHT22;54121;53.508;49.422;2022-12-07T09:37:51;4.50;24.50
67194;DHT22;54121;53.508;49.422;2022-12-07T09:40:20;4.50;24.50
67194;DHT22;54121;53.508;49.422;2022-12-07T09:42:53;4.30;24.40
67194;DHT22;54121;53.508;49.422;2022-12-07T09:45:25;4.20;24.70
67194;DHT22;54121;53.508;49.422;2022-12-07T09:47:53;4.00;25.20
67194;DHT22;54121;53.508;49.422;2022-12-07T09:50:25;3.90;25.60
67194;DHT22;54121;53.508;49.422;2022-12-07T09:52:53;3.90;26.10
67194;DHT22;54121;53.508;49.422;2022-12-07T09:55:27;4.10;26.00
67194;DHT22;54121;53.508;49.422;2022-12-07T09:57:54;4.00;26.00
67194;DHT22;54121;53.508;49.422;2022-12-07T10:00:22;4.20;25.70
67194;DHT22;54121;53.508;49.422;2022-12-07T10:02:51;4.10;25.80
67194;DHT22;54121;53.508;49.422;2022-12-07T10:05:44;4.20;25.70
67194;DHT22;54121;53.508;49.422;2022-12-07T10:08:11;4.20;25.50
67194;DHT22;54121;53.508;49.422;2022-12-07T10:10:39;4.10;25.70
67194;DHT22;54121;53.508;49.422;2022-12-07T10:13:17;4.30;25.60
67194;DHT22;54121;53.508;49.422;2022-12-07T10:15:54;4.00;25.70
67194;DHT22;54121;53.508;49.422;2022-12-07T10:23:40;4.60;24.60
67194;DHT22;54121;53.508;49.422;2022-12-07T10:26:32;4.60;24.60
67194;DHT22;54121;53.508;49.422;2022-12-07T10:29:02;5.00;25.10
67194;DHT22;54121;53.508;49.422;2022-12-07T10:31:30;6.10;23.70
67194;DHT22;54121;53.508;49.422;2022-12-07T10:33:59;6.70;22.30
67194;DHT22;54121;53.508;49.422;2022-12-07T10:41:30;7.40;21.50
67194;DHT22;54121;53.508;49.422;2022-12-07T10:43:57;7.00;21.60
67194;DHT22;54121;53.508;49.422;2022-12-07T11:08:28;7.20;21.20
67194;DHT22;54121;53.508;49.422;2022-12-07T11:11:02;6.30;22.30
67194;DHT22;54121;53.508;49.422;2022-12-07T11:24:19;4.60;25.00
67194;DHT22;54121;53.508;49.422;2022-12-07T11:27:20;4.60;25.00
67194;DHT22;54121;53.508;49.422;2022-12-07T11:30:02;4.60;25.30
67194;DHT22;54121;53.508;49.422;2022-12-07T11:33:10;5.50;23.90
67194;DHT22;54121;53.508;49.422;2022-12-07T11:38:56;6.00;22.70
67194;DHT22;54121;53.508;49.422;2022-12-07T11:41:28;5.30;23.50
67194;DHT22;54121;53.508;49.422;2022-12-07T11:43:59;5.10;23.70
67194;DHT22;54121;53.508;49.422;2022-12-07T11:46:45;4.50;24.30
67194;DHT22;54121;53.508;49.422;2022-12-07T11:52:03;4.90;23.80
67194;DHT22;54121;53.508;49.422;2022-12-07T11:54:35;4.20;24.20
67194;DHT22;54121;53.508;49.422;2022-12-07T11:57:17;3.90;24.90
67194;DHT22;54121;53.508;49.422;2022-12-07T11:59:51;4.00;24.90
67194;DHT22;54121;53.508;49.422;2022-12-07T12:02:32;4.40;24.20
67194;DHT22;54121;53.508;49.422;2022-12-07T12:05:17;4.30;24.10
67194;DHT22;54121;53.508;49.422;2022-12-07T12:07:45;4.00;24.30
67194;DHT22;54121;53.508;49.422;2022-12-07T12:10:20;3.30;25.10
67194;DHT22;54121;53.508;49.422;2022-12-07T12:13:01;3.20;25.50
67194;DHT22;54121;53.508;49.422;2022-12-07T12:18:37;2.30;26.60
67194;DHT22;54121;53.508;49.422;2022-12-07T12:21:28;2.10;27.00
67194;DHT22;54121;53.508;49.422;2022-12-07T12:24:02;2.00;27.30
67194;DHT22;54121;53.508;49.422;2022-12-07T12:26:33;2.40;27.40
67194;DHT22;54121;53.508;49.422;2022-12-07T12:29:21;2.70;26.50
67194;DHT22;54121;53.508;49.422;2022-12-07T12:32:18;3.00;26.00
67194;DHT22;54121;53.508;49.422;2022-12-07T12:43:01;2.30;26.80
67194;DHT22;54121;53.508;49.422;2022-12-07T12:45:30;2.10;27.20
67194;DHT22;54121;53.508;49.422;2022-12-07T12:50:35;2.60;26.80
67194;DHT22;54121;53.508;49.422;2022-12-07T12:53:24;2.70;26.50
67194;DHT22;54121;53.508;49.422;2022-12-07T12:58:35;2.20;27.00
67194;DHT22;54121;53.508;49.422;2022-12-07T13:01:42;2.20;27.30
67194;DHT22;54121;53.508;49.422;2022-12-07T13:13:05;1.40;28.10
67194;DHT22;54121;53.508;49.422;2022-12-07T13:15:54;0.00;29.40
67194;DHT22;54121;53.508;49.422;2022-12-07T13:26:19;-3.30;38.00
67194;DHT22;54121;53.508;49.422;2022-12-07T13:34:33;-4.10;40.70
67194;DHT22;54121;53.508;49.422;2022-12-07T13:37:28;-4.40;41.90
67194;DHT22;54121;53.508;49.422;2022-12-07T13:40:18;-4.70;42.90
67194;DHT22;54121;53.508;49.422;2022-12-07T13:42:45;-4.70;43.30
67194;DHT22;54121;53.508;49.422;2022-12-07T13:45:22;-4.90;44.00
67194;DHT22;54121;53.508;49.422;2022-12-07T13:48:16;-5.00;44.50
67194;DHT22;54121;53.508;49.422;2022-12-07T13:50:53;-5.20;44.90
67194;DHT22;54121;53.508;49.422;2022-12-07T13:53:20;-5.50;45.80
67194;DHT22;54121;53.508;49.422;2022-12-07T13:55:47;-5.60;46.30
67194;DHT22;54121;53.508;49.422;2022-12-07T13:58:14;-6.00;47.10
67194;DHT22;54121;53.508;49.422;2022-12-07T14:00:41;-6.40;48.30
67194;DHT22;54121;53.508;49.422;2022-12-07T14:05:42;-6.50;49.40
67194;DHT22;54121;53.508;49.422;2022-12-07T14:10:41;-6.70;50.30
67194;DHT22;54121;53.508;49.422;2022-12-07T14:13:32;-6.90;50.90
67194;DHT22;54121;53.508;49.422;2022-12-07T14:16:03;-8.30;50.90
67194;DHT22;54121;53.508;49.422;2022-12-07T14:18:38;-7.50;52.60
67194;DHT22;54121;53.508;49.422;2022-12-07T14:23:40;-7.50;53.60
67194;DHT22;54121;53.508;49.422;2022-12-07T14:26:13;-7.60;53.60
67194;DHT22;54121;53.508;49.422;2022-12-07T14:28:41;-7.80;54.10
67194;DHT22;54121;53.508;49.422;2022-12-07T14:31:15;-7.70;54.60
67194;DHT22;54121;53.508;49.422;2022-12-07T14:33:43;-7.80;54.10
67194;DHT22;54121;53.508;49.422;2022-12-07T14:36:11;-7.90;54.10
67194;DHT22;54121;53.508;49.422;2022-12-07T14:38:39;-7.80;54.70
67194;DHT22;54121;53.508;49.422;2022-12-07T14:41:18;-7.80;54.30
67194;DHT22;54121;53.508;49.422;2022-12-07T14:44:11;-7.90;54.50
67194;DHT22;54121;53.508;49.422;2022-12-07T14:46:38;-7.80;54.20
67194;DHT22;54121;53.508;49.422;2022-12-07T14:49:05;-7.80;54.20
67194;DHT22;54121;53.508;49.422;2022-12-07T14:51:32;-7.90;54.40
67194;DHT22;54121;53.508;49.422;2022-12-07T14:54:00;-7.90;54.30
67194;DHT22;54121;53.508;49.422;2022-12-07T14:56:26;-7.90;54.50
67194;DHT22;54121;53.508;49.422;2022-12-07T14:58:54;-8.00;55.10
67194;DHT22;54121;53.508;49.422;2022-12-07T15:01:20;-8.10;55.50
67194;DHT22;54121;53.508;49.422;2022-12-07T15:03:47;-8.40;56.50
67194;DHT22;54121;53.508;49.422;2022-12-07T15:06:15;-8.50;56.70
67194;DHT22;54121;53.508;49.422;2022-12-07T15:08:42;-8.40;56.80
67194;DHT22;54121;53.508;49.422;2022-12-07T15:11:14;-8.50;57.40
67194;DHT22;54121;53.508;49.422;2022-12-07T15:13:42;-8.60;57.60
67194;DHT22;54121;53.508;49.422;2022-12-07T15:16:27;-8.60;57.50
67194;DHT22;54121;53.508;49.422;2022-12-07T15:18:53;-8.50;57.30
67194;DHT22;54121;53.508;49.422;2022-12-07T15:21:20;-8.50;57.30
67194;DHT22;54121;53.508;49.422;2022-12-07T15:23:47;-8.60;57.10
67194;DHT22;54121;53.508;49.422;2022-12-07T15:26:14;-8.60;57.20
67194;DHT22;54121;53.508;49.422;2022-12-07T15:28:41;-8.60;57.30
67194;DHT22;54121;53.508;49.422;2022-12-07T15:31:15;-8.70;57.90
67194;DHT22;54121;53.508;49.422;2022-12-07T15:33:43;-8.80;58.30
67194;DHT22;54121;53.508;49.422;2022-12-07T15:36:19;-8.90;58.60
67194;DHT22;54121;53.508;49.422;2022-12-07T15:38:47;-8.90;58.80
67194;DHT22;54121;53.508;49.422;2022-12-07T15:41:18;-8.80;58.50
67194;DHT22;54121;53.508;49.422;2022-12-07T15:43:44;-8.90;58.90
67194;DHT22;54121;53.508;49.422;2022-12-07T15:46:34;-9.00;59.30
67194;DHT22;54121;53.508;49.422;2022-12-07T15:49:01;-9.10;59.80
67194;DHT22;54121;53.508;49.422;2022-12-07T15:51:28;-9.20;60.00
67194;DHT22;54121;53.508;49.422;2022-12-07T15:53:56;-9.10;60.20
67194;DHT22;54121;53.508;49.422;2022-12-07T15:56:23;-9.20;59.90
67194;DHT22;54121;53.508;49.422;2022-12-07T15:58:49;-9.10;60.20
67194;DHT22;54121;53.508;49.422;2022-12-07T16:01:18;-9.20;60.10
67194;DHT22;54121;53.508;49.422;2022-12-07T16:03:45;-9.30;60.40
67194;DHT22;54121;53.508;49.422;2022-12-07T16:06:16;-9.40;60.50
67194;DHT22;54121;53.508;49.422;2022-12-07T16:08:44;-9.30;60.50
67194;DHT22;54121;53.508;49.422;2022-12-07T16:11:12;-9.30;60.60
67194;DHT22;54121;53.508;49.422;2022-12-07T16:13:38;-9.50;60.40
67194;DHT22;54121;53.508;49.422;2022-12-07T16:16:11;-9.40;60.70
67194;DHT22;54121;53.508;49.422;2022-12-07T16:18:39;-9.50;60.90
67194;DHT22;54121;53.508;49.422;2022-12-07T16:21:05;-9.30;60.80
67194;DHT22;54121;53.508;49.422;2022-12-07T16:23:32;-9.50;60.50
67194;DHT22;54121;53.508;49.422;2022-12-07T16:26:10;-9.50;60.50
67194;DHT22;54121;53.508;49.422;2022-12-07T16:28:38;-9.50;60.50
67194;DHT22;54121;53.508;49.422;2022-12-07T16:31:09;-9.60;60.60
67194;DHT22;54121;53.508;49.422;2022-12-07T16:33:37;-9.70;60.80
67194;DHT22;54121;53.508;49.422;2022-12-07T16:36:05;-9.70;60.80
67194;DHT22;54121;53.508;49.422;2022-12-07T16:38:32;-9.70;60.90
67194;DHT22;54121;53.508;49.422;2022-12-07T16:40:58;-9.60;60.60
67194;DHT22;54121;53.508;49.422;2022-12-07T16:43:25;-9.60;60.60
67194;DHT22;54121;53.508;49.422;2022-12-07T16:45:52;-9.70;60.50
67194;DHT22;54121;53.508;49.422;2022-12-07T16:48:18;-9.70;60.70
67194;DHT22;54121;53.508;49.422;2022-12-07T16:50:46;-9.70;60.70
67194;DHT22;54121;53.508;49.422;2022-12-07T16:53:14;-9.70;61.00
67194;DHT22;54121;53.508;49.422;2022-12-07T16:55:44;-9.60;60.30
67194;DHT22;54121;53.508;49.422;2022-12-07T16:58:15;-9.60;60.10
67194;DHT22;54121;53.508;49.422;2022-12-07T17:00:43;-9.50;60.00
67194;DHT22;54121;53.508;49.422;2022-12-07T17:03:10;-9.60;60.20
67194;DHT22;54121;53.508;49.422;2022-12-07T17:05:39;-9.60;60.50
67194;DHT22;54121;53.508;49.422;2022-12-07T17:08:07;-9.60;60.70
67194;DHT22;54121;53.508;49.422;2022-12-07T17:10:36;-9.70;60.50
67194;DHT22;54121;53.508;49.422;2022-12-07T17:13:04;-9.80;60.80
67194;DHT22;54121;53.508;49.422;2022-12-07T17:16:05;-9.70;60.60
67194;DHT22;54121;53.508;49.422;2022-12-07T17:18:34;-9.80;60.60
67194;DHT22;54121;53.508;49.422;2022-12-07T17:21:08;-9.90;61.00
67194;DHT22;54121;53.508;49.422;2022-12-07T17:23:36;-10.00;61.40
67194;DHT22;54121;53.508;49.422;2022-12-07T17:26:26;-10.10;61.60
67194;DHT22;54121;53.508;49.422;2022-12-07T17:28:53;-10.20;62.10
67194;DHT22;54121;53.508;49.422;2022-12-07T17:31:21;-10.10;62.20
67194;DHT22;54121;53.508;49.422;2022-12-07T17:33:48;-10.00;61.80
67194;DHT22;54121;53.508;49.422;2022-12-07T17:36:24;-9.90;61.20
67194;DHT22;54121;53.508;49.422;2022-12-07T17:38:53;-9.90;61.10
67194;DHT22;54121;53.508;49.422;2022-12-07T17:41:24;-9.80;60.70
67194;DHT22;54121;53.508;49.422;2022-12-07T17:44:13;-9.90;60.90
67194;DHT22;54121;53.508;49.422;2022-12-07T17:46:40;-10.00;61.20